sensor_id;sensor_type;location;lat;lon;timestamp;P1;durP1;ratioP1;P2;durP2;ratioP2
27939;SDS011;15275;51.716;14.324;2023-03-02T00:01:22;21.33;;;9.48;;
27939;SDS011;15275;51.716;14.324;2023-03-02T00:06:23;21.83;;;9.63;;
27939;SDS011;15275;51.716;14.324;2023-03-02T00:08:51;17.70;;;8.32;;
27939;SDS011;15275;51.716;14.324;2023-03-02T00:11:17;18.13;;;8.48;;
27939;SDS011;15275;51.716;14.324;2023-03-02T00:13:43;21.55;;;9.10;;
27939;SDS011;15275;51.716;14.324;2023-03-02T00:16:09;17.10;;;8.27;;
27939;SDS011;15275;51.716;14.324;2023-03-02T00:18:35;20.65;;;8.07;;
27939;SDS011;15275;51.716;14.324;2023-03-02T00:21:01;15.40;;;7.45;;
27939;SDS011;15275;51.716;14.324;2023-03-02T00:23:27;17.85;;;7.25;;
27939;SDS011;15275;51.716;14.324;2023-03-02T00:25:52;17.52;;;7.80;;
27939;SDS011;15275;51.716;14.324;2023-03-02T00:28:18;16.77;;;8.32;;
27939;SDS011;15275;51.716;14.324;2023-03-02T00:30:44;16.05;;;7.25;;
27939;SDS011;15275;51.716;14.324;2023-03-02T00:33:10;17.63;;;7.78;;
27939;SDS011;15275;51.716;14.324;2023-03-02T00:35:36;16.38;;;7.85;;
27939;SDS011;15275;51.716;14.324;2023-03-02T00:38:03;15.45;;;7.57;;
27939;SDS011;15275;51.716;14.324;2023-03-02T00:40:31;17.33;;;7.38;;
27939;SDS011;15275;51.716;14.324;2023-03-02T00:42:58;18.50;;;7.75;;
27939;SDS011;15275;51.716;14.324;2023-03-02T00:45:24;16.13;;;7.50;;
27939;SDS011;15275;51.716;14.324;2023-03-02T00:47:50;15.50;;;6.50;;
27939;SDS011;15275;51.716;14.324;2023-03-02T00:50:16;15.68;;;7.00;;
27939;SDS011;15275;51.716;14.324;2023-03-02T00:52:42;18.10;;;8.15;;
27939;SDS011;15275;51.716;14.324;2023-03-02T00:55:08;14.85;;;7.55;;
27939;SDS011;15275;51.716;14.324;2023-03-02T00:57:34;15.75;;;6.88;;
27939;SDS011;15275;51.716;14.324;2023-03-02T01:00:00;14.07;;;6.43;;
27939;SDS011;15275;51.716;14.324;2023-03-02T01:02:26;19.70;;;7.30;;
27939;SDS011;15275;51.716;14.324;2023-03-02T01:04:51;20.98;;;9.27;;
27939;SDS011;15275;51.716;14.324;2023-03-02T01:07:18;18.08;;;7.40;;
27939;SDS011;15275;51.716;14.324;2023-03-02T01:09:45;14.73;;;7.68;;
27939;SDS011;15275;51.716;14.324;2023-03-02T01:12:12;16.60;;;7.65;;
27939;SDS011;15275;51.716;14.324;2023-03-02T01:14:40;17.17;;;8.13;;
27939;SDS011;15275;51.716;14.324;2023-03-02T01:17:10;14.60;;;7.68;;
27939;SDS011;15275;51.716;14.324;2023-03-02T01:19:36;17.45;;;7.72;;
27939;SDS011;15275;51.716;14.324;2023-03-02T01:22:02;16.50;;;7.68;;
27939;SDS011;15275;51.716;14.324;2023-03-02T01:24:28;17.08;;;7.68;;
27939;SDS011;15275;51.716;14.324;2023-03-02T01:26:54;18.08;;;8.05;;
27939;SDS011;15275;51.716;14.324;2023-03-02T01:29:20;14.82;;;7.00;;
27939;SDS011;15275;51.716;14.324;2023-03-02T01:31:46;24.35;;;8.40;;
27939;SDS011;15275;51.716;14.324;2023-03-02T01:34:12;21.83;;;8.05;;
27939;SDS011;15275;51.716;14.324;2023-03-02T01:36:38;19.85;;;7.93;;
27939;SDS011;15275;51.716;14.324;2023-03-02T01:39:04;19.15;;;8.23;;
27939;SDS011;15275;51.716;14.324;2023-03-02T01:41:30;20.83;;;8.07;;
27939;SDS011;15275;51.716;14.324;2023-03-02T01:43:56;18.25;;;8.63;;
27939;SDS011;15275;51.716;14.324;2023-03-02T01:46:26;20.70;;;8.48;;
27939;SDS011;15275;51.716;14.324;2023-03-02T01:51:29;17.13;;;7.40;;
27939;SDS011;15275;51.716;14.324;2023-03-02T01:54:01;18.00;;;7.95;;
27939;SDS011;15275;51.716;14.324;2023-03-02T01:56:32;18.05;;;7.88;;
27939;SDS011;15275;51.716;14.324;2023-03-02T01:59:04;18.65;;;7.93;;
27939;SDS011;15275;51.716;14.324;2023-03-02T02:01:35;17.87;;;8.13;;
27939;SDS011;15275;51.716;14.324;2023-03-02T02:04:05;19.67;;;8.63;;
27939;SDS011;15275;51.716;14.324;2023-03-02T02:06:39;16.25;;;7.75;;
27939;SDS011;15275;51.716;14.324;2023-03-02T02:09:17;19.48;;;7.82;;
27939;SDS011;15275;51.716;14.324;2023-03-02T02:11:45;19.35;;;9.05;;
27939;SDS011;15275;51.716;14.324;2023-03-02T02:14:11;21.83;;;8.50;;
27939;SDS011;15275;51.716;14.324;2023-03-02T02:16:37;22.60;;;9.55;;
27939;SDS011;15275;51.716;14.324;2023-03-02T02:19:06;25.42;;;9.93;;
27939;SDS011;15275;51.716;14.324;2023-03-02T02:21:47;21.88;;;9.75;;
27939;SDS011;15275;51.716;14.324;2023-03-02T02:24:31;24.00;;;9.02;;
27939;SDS011;15275;51.716;14.324;2023-03-02T02:27:06;25.77;;;10.73;;
27939;SDS011;15275;51.716;14.324;2023-03-02T02:29:33;22.80;;;10.95;;
27939;SDS011;15275;51.716;14.324;2023-03-02T02:35:07;22.27;;;9.70;;
27939;SDS011;15275;51.716;14.324;2023-03-02T02:37:49;27.42;;;11.00;;
27939;SDS011;15275;51.716;14.324;2023-03-02T02:40:20;23.35;;;9.75;;
27939;SDS011;15275;51.716;14.324;2023-03-02T02:43:02;22.77;;;9.93;;
27939;SDS011;15275;51.716;14.324;2023-03-02T02:45:28;23.05;;;10.23;;
27939;SDS011;15275;51.716;14.324;2023-03-02T02:47:54;21.23;;;9.07;;
27939;SDS011;15275;51.716;14.324;2023-03-02T02:50:22;21.10;;;8.45;;
27939;SDS011;15275;51.716;14.324;2023-03-02T02:54:01;21.70;;;9.30;;
27939;SDS011;15275;51.716;14.324;2023-03-02T02:56:12;20.38;;;9.57;;
27939;SDS011;15275;51.716;14.324;2023-03-02T02:58:44;22.98;;;10.02;;
27939;SDS011;15275;51.716;14.324;2023-03-02T03:01:15;20.27;;;9.48;;
27939;SDS011;15275;51.716;14.324;2023-03-02T03:03:53;21.80;;;8.93;;
27939;SDS011;15275;51.716;14.324;2023-03-02T03:06:27;18.70;;;7.17;;
27939;SDS011;15275;51.716;14.324;2023-03-02T03:09:06;24.20;;;10.38;;
27939;SDS011;15275;51.716;14.324;2023-03-02T03:11:35;22.27;;;9.23;;
27939;SDS011;15275;51.716;14.324;2023-03-02T03:14:08;23.40;;;9.52;;
27939;SDS011;15275;51.716;14.324;2023-03-02T03:16:38;20.73;;;8.70;;
27939;SDS011;15275;51.716;14.324;2023-03-02T03:19:20;21.73;;;9.02;;
27939;SDS011;15275;51.716;14.324;2023-03-02T03:21:55;17.38;;;8.02;;
27939;SDS011;15275;51.716;14.324;2023-03-02T03:24:25;21.77;;;9.02;;
27939;SDS011;15275;51.716;14.324;2023-03-02T03:26:53;20.60;;;9.40;;
27939;SDS011;15275;51.716;14.324;2023-03-02T03:29:20;20.95;;;9.05;;
27939;SDS011;15275;51.716;14.324;2023-03-02T03:31:49;28.10;;;9.95;;
27939;SDS011;15275;51.716;14.324;2023-03-02T03:34:17;24.55;;;9.57;;
27939;SDS011;15275;51.716;14.324;2023-03-02T03:36:44;21.63;;;8.77;;
27939;SDS011;15275;51.716;14.324;2023-03-02T03:39:12;21.48;;;9.18;;
27939;SDS011;15275;51.716;14.324;2023-03-02T03:41:39;20.13;;;9.15;;
27939;SDS011;15275;51.716;14.324;2023-03-02T03:44:05;20.90;;;9.18;;
27939;SDS011;15275;51.716;14.324;2023-03-02T03:46:32;20.48;;;8.90;;
27939;SDS011;15275;51.716;14.324;2023-03-02T03:48:58;21.02;;;9.40;;
27939;SDS011;15275;51.716;14.324;2023-03-02T03:51:24;21.35;;;9.30;;
27939;SDS011;15275;51.716;14.324;2023-03-02T03:53:51;20.83;;;8.93;;
27939;SDS011;15275;51.716;14.324;2023-03-02T03:56:27;22.77;;;9.88;;
27939;SDS011;15275;51.716;14.324;2023-03-02T03:58:54;21.40;;;9.38;;
27939;SDS011;15275;51.716;14.324;2023-03-02T04:01:34;21.17;;;9.85;;
27939;SDS011;15275;51.716;14.324;2023-03-02T04:04:25;20.75;;;8.68;;
27939;SDS011;15275;51.716;14.324;2023-03-02T04:06:54;21.95;;;8.13;;
27939;SDS011;15275;51.716;14.324;2023-03-02T04:09:21;26.65;;;9.63;;
27939;SDS011;15275;51.716;14.324;2023-03-02T04:11:48;19.52;;;8.35;;
27939;SDS011;15275;51.716;14.324;2023-03-02T04:14:16;28.13;;;10.32;;
27939;SDS011;15275;51.716;14.324;2023-03-02T04:16:43;20.00;;;9.30;;
27939;SDS011;15275;51.716;14.324;2023-03-02T04:19:10;24.45;;;10.15;;
27939;SDS011;15275;51.716;14.324;2023-03-02T04:21:37;22.27;;;9.93;;
27939;SDS011;15275;51.716;14.324;2023-03-02T04:24:10;20.87;;;9.47;;
27939;SDS011;15275;51.716;14.324;2023-03-02T04:26:38;22.90;;;9.60;;
27939;SDS011;15275;51.716;14.324;2023-03-02T04:29:06;24.17;;;10.73;;
27939;SDS011;15275;51.716;14.324;2023-03-02T04:31:32;26.17;;;10.02;;
27939;SDS011;15275;51.716;14.324;2023-03-02T04:33:59;25.80;;;10.82;;
27939;SDS011;15275;51.716;14.324;2023-03-02T04:36:28;26.13;;;9.98;;
27939;SDS011;15275;51.716;14.324;2023-03-02T04:38:55;20.48;;;9.93;;
27939;SDS011;15275;51.716;14.324;2023-03-02T04:41:22;24.45;;;10.25;;
27939;SDS011;15275;51.716;14.324;2023-03-02T04:43:48;27.25;;;9.82;;
27939;SDS011;15275;51.716;14.324;2023-03-02T04:46:17;24.95;;;10.65;;
27939;SDS011;15275;51.716;14.324;2023-03-02T04:48:47;21.98;;;9.75;;
27939;SDS011;15275;51.716;14.324;2023-03-02T04:51:17;25.95;;;10.98;;
27939;SDS011;15275;51.716;14.324;2023-03-02T04:53:48;20.00;;;10.45;;
27939;SDS011;15275;51.716;14.324;2023-03-02T04:56:26;25.85;;;11.13;;
27939;SDS011;15275;51.716;14.324;2023-03-02T04:58:52;27.83;;;11.02;;
27939;SDS011;15275;51.716;14.324;2023-03-02T05:01:19;27.33;;;10.75;;
27939;SDS011;15275;51.716;14.324;2023-03-02T05:03:46;24.15;;;10.18;;
27939;SDS011;15275;51.716;14.324;2023-03-02T05:06:12;31.50;;;11.27;;
27939;SDS011;15275;51.716;14.324;2023-03-02T05:08:39;26.27;;;11.52;;
27939;SDS011;15275;51.716;14.324;2023-03-02T05:11:05;28.67;;;11.63;;
27939;SDS011;15275;51.716;14.324;2023-03-02T05:13:32;31.58;;;11.77;;
27939;SDS011;15275;51.716;14.324;2023-03-02T05:15:59;24.60;;;10.38;;
27939;SDS011;15275;51.716;14.324;2023-03-02T05:18:26;25.92;;;12.82;;
27939;SDS011;15275;51.716;14.324;2023-03-02T05:20:52;25.77;;;11.27;;
27939;SDS011;15275;51.716;14.324;2023-03-02T05:23:19;23.83;;;10.68;;
27939;SDS011;15275;51.716;14.324;2023-03-02T05:25:49;29.42;;;12.30;;
27939;SDS011;15275;51.716;14.324;2023-03-02T05:28:17;24.77;;;10.73;;
27939;SDS011;15275;51.716;14.324;2023-03-02T05:30:45;28.70;;;10.88;;
27939;SDS011;15275;51.716;14.324;2023-03-02T05:33:11;22.40;;;9.63;;
27939;SDS011;15275;51.716;14.324;2023-03-02T05:35:37;26.00;;;11.48;;
27939;SDS011;15275;51.716;14.324;2023-03-02T05:38:04;30.83;;;11.63;;
27939;SDS011;15275;51.716;14.324;2023-03-02T05:40:30;29.77;;;12.68;;
27939;SDS011;15275;51.716;14.324;2023-03-02T05:42:56;28.80;;;12.70;;
27939;SDS011;15275;51.716;14.324;2023-03-02T05:45:24;27.50;;;13.27;;
27939;SDS011;15275;51.716;14.324;2023-03-02T05:47:57;27.15;;;12.05;;
27939;SDS011;15275;51.716;14.324;2023-03-02T05:50:23;30.02;;;12.15;;
27939;SDS011;15275;51.716;14.324;2023-03-02T05:52:49;30.08;;;12.35;;
27939;SDS011;15275;51.716;14.324;2023-03-02T05:55:15;26.63;;;12.05;;
27939;SDS011;15275;51.716;14.324;2023-03-02T05:57:42;31.70;;;11.68;;
27939;SDS011;15275;51.716;14.324;2023-03-02T06:00:09;30.95;;;12.20;;
27939;SDS011;15275;51.716;14.324;2023-03-02T06:02:37;28.00;;;11.57;;
27939;SDS011;15275;51.716;14.324;2023-03-02T06:05:05;29.42;;;12.85;;
27939;SDS011;15275;51.716;14.324;2023-03-02T06:07:34;27.95;;;11.85;;
27939;SDS011;15275;51.716;14.324;2023-03-02T06:09:59;27.40;;;10.77;;
27939;SDS011;15275;51.716;14.324;2023-03-02T06:12:25;26.85;;;11.70;;
27939;SDS011;15275;51.716;14.324;2023-03-02T06:14:51;32.28;;;12.75;;
27939;SDS011;15275;51.716;14.324;2023-03-02T06:17:17;28.50;;;12.07;;
27939;SDS011;15275;51.716;14.324;2023-03-02T06:19:43;30.13;;;12.65;;
27939;SDS011;15275;51.716;14.324;2023-03-02T06:22:08;30.83;;;12.63;;
27939;SDS011;15275;51.716;14.324;2023-03-02T06:24:34;32.83;;;14.20;;
27939;SDS011;15275;51.716;14.324;2023-03-02T06:27:00;37.45;;;14.43;;
27939;SDS011;15275;51.716;14.324;2023-03-02T06:29:26;34.97;;;14.98;;
27939;SDS011;15275;51.716;14.324;2023-03-02T06:31:52;36.28;;;14.88;;
27939;SDS011;15275;51.716;14.324;2023-03-02T06:34:18;35.50;;;17.05;;
27939;SDS011;15275;51.716;14.324;2023-03-02T06:36:43;32.90;;;15.73;;
27939;SDS011;15275;51.716;14.324;2023-03-02T06:39:09;31.95;;;15.20;;
27939;SDS011;15275;51.716;14.324;2023-03-02T06:41:45;37.58;;;16.23;;
27939;SDS011;15275;51.716;14.324;2023-03-02T06:44:13;37.33;;;15.88;;
27939;SDS011;15275;51.716;14.324;2023-03-02T06:46:40;38.03;;;16.33;;
27939;SDS011;15275;51.716;14.324;2023-03-02T06:49:07;46.70;;;18.92;;
27939;SDS011;15275;51.716;14.324;2023-03-02T06:51:34;35.45;;;17.55;;
27939;SDS011;15275;51.716;14.324;2023-03-02T06:54:01;39.63;;;16.27;;
27939;SDS011;15275;51.716;14.324;2023-03-02T06:56:27;37.00;;;15.98;;
27939;SDS011;15275;51.716;14.324;2023-03-02T06:58:52;42.13;;;17.33;;
27939;SDS011;15275;51.716;14.324;2023-03-02T07:01:18;41.42;;;15.25;;
27939;SDS011;15275;51.716;14.324;2023-03-02T07:03:44;31.77;;;14.73;;
27939;SDS011;15275;51.716;14.324;2023-03-02T07:06:11;42.10;;;18.23;;
27939;SDS011;15275;51.716;14.324;2023-03-02T07:08:38;37.28;;;16.10;;
27939;SDS011;15275;51.716;14.324;2023-03-02T07:11:05;47.30;;;17.65;;
27939;SDS011;15275;51.716;14.324;2023-03-02T07:13:32;41.72;;;16.30;;
27939;SDS011;15275;51.716;14.324;2023-03-02T07:15:58;39.78;;;17.92;;
27939;SDS011;15275;51.716;14.324;2023-03-02T07:18:24;44.85;;;18.13;;
27939;SDS011;15275;51.716;14.324;2023-03-02T07:20:50;45.88;;;19.60;;
27939;SDS011;15275;51.716;14.324;2023-03-02T07:23:16;40.15;;;18.15;;
27939;SDS011;15275;51.716;14.324;2023-03-02T07:25:42;47.88;;;19.75;;
27939;SDS011;15275;51.716;14.324;2023-03-02T07:28:07;55.90;;;20.67;;
27939;SDS011;15275;51.716;14.324;2023-03-02T07:30:33;49.60;;;20.67;;
27939;SDS011;15275;51.716;14.324;2023-03-02T07:32:59;44.58;;;21.55;;
27939;SDS011;15275;51.716;14.324;2023-03-02T07:35:25;53.47;;;21.60;;
27939;SDS011;15275;51.716;14.324;2023-03-02T07:37:51;50.10;;;20.95;;
27939;SDS011;15275;51.716;14.324;2023-03-02T07:40:17;47.15;;;20.08;;
27939;SDS011;15275;51.716;14.324;2023-03-02T07:42:43;44.08;;;19.13;;
27939;SDS011;15275;51.716;14.324;2023-03-02T07:45:09;44.75;;;19.33;;
27939;SDS011;15275;51.716;14.324;2023-03-02T07:47:38;45.00;;;18.42;;
27939;SDS011;15275;51.716;14.324;2023-03-02T07:50:04;37.92;;;17.77;;
27939;SDS011;15275;51.716;14.324;2023-03-02T07:52:31;42.78;;;18.15;;
27939;SDS011;15275;51.716;14.324;2023-03-02T07:54:56;42.38;;;18.35;;
27939;SDS011;15275;51.716;14.324;2023-03-02T07:57:22;44.97;;;18.70;;
27939;SDS011;15275;51.716;14.324;2023-03-02T07:59:48;38.58;;;16.80;;
27939;SDS011;15275;51.716;14.324;2023-03-02T08:02:15;40.53;;;17.45;;
27939;SDS011;15275;51.716;14.324;2023-03-02T08:04:42;42.40;;;17.60;;
27939;SDS011;15275;51.716;14.324;2023-03-02T08:07:08;40.70;;;17.98;;
27939;SDS011;15275;51.716;14.324;2023-03-02T08:09:34;36.70;;;17.55;;
27939;SDS011;15275;51.716;14.324;2023-03-02T08:11:59;47.10;;;19.85;;
27939;SDS011;15275;51.716;14.324;2023-03-02T08:14:25;40.05;;;19.10;;
27939;SDS011;15275;51.716;14.324;2023-03-02T08:16:51;42.85;;;17.55;;
27939;SDS011;15275;51.716;14.324;2023-03-02T08:19:17;37.83;;;16.50;;
27939;SDS011;15275;51.716;14.324;2023-03-02T08:21:44;38.08;;;18.15;;
27939;SDS011;15275;51.716;14.324;2023-03-02T08:24:10;44.00;;;19.30;;
27939;SDS011;15275;51.716;14.324;2023-03-02T08:26:36;42.08;;;18.83;;
27939;SDS011;15275;51.716;14.324;2023-03-02T08:29:03;37.67;;;18.60;;
27939;SDS011;15275;51.716;14.324;2023-03-02T08:31:30;38.50;;;18.75;;
27939;SDS011;15275;51.716;14.324;2023-03-02T08:33:55;44.42;;;20.15;;
27939;SDS011;15275;51.716;14.324;2023-03-02T08:36:23;38.45;;;18.60;;
27939;SDS011;15275;51.716;14.324;2023-03-02T08:38:49;36.80;;;18.65;;
27939;SDS011;15275;51.716;14.324;2023-03-02T08:41:17;38.22;;;18.52;;
27939;SDS011;15275;51.716;14.324;2023-03-02T08:43:45;38.08;;;19.38;;
27939;SDS011;15275;51.716;14.324;2023-03-02T08:46:12;40.33;;;17.95;;
27939;SDS011;15275;51.716;14.324;2023-03-02T08:48:41;37.65;;;19.70;;
27939;SDS011;15275;51.716;14.324;2023-03-02T08:51:08;42.35;;;20.23;;
27939;SDS011;15275;51.716;14.324;2023-03-02T08:53:40;37.67;;;19.33;;
27939;SDS011;15275;51.716;14.324;2023-03-02T08:56:28;39.35;;;18.52;;
27939;SDS011;15275;51.716;14.324;2023-03-02T08:58:58;37.15;;;18.17;;
27939;SDS011;15275;51.716;14.324;2023-03-02T09:01:28;38.38;;;19.23;;
27939;SDS011;15275;51.716;14.324;2023-03-02T09:03:57;37.08;;;18.98;;
27939;SDS011;15275;51.716;14.324;2023-03-02T09:06:25;34.13;;;17.80;;
27939;SDS011;15275;51.716;14.324;2023-03-02T09:08:56;40.05;;;16.85;;
27939;SDS011;15275;51.716;14.324;2023-03-02T09:11:22;41.03;;;19.90;;
27939;SDS011;15275;51.716;14.324;2023-03-02T09:13:49;38.75;;;18.20;;
27939;SDS011;15275;51.716;14.324;2023-03-02T09:16:15;39.38;;;18.15;;
27939;SDS011;15275;51.716;14.324;2023-03-02T09:18:44;39.10;;;19.05;;
27939;SDS011;15275;51.716;14.324;2023-03-02T09:21:10;32.58;;;17.55;;
27939;SDS011;15275;51.716;14.324;2023-03-02T09:23:37;33.03;;;17.33;;
27939;SDS011;15275;51.716;14.324;2023-03-02T09:26:03;37.58;;;17.80;;
27939;SDS011;15275;51.716;14.324;2023-03-02T09:28:29;32.15;;;16.65;;
27939;SDS011;15275;51.716;14.324;2023-03-02T09:30:56;32.33;;;16.85;;
27939;SDS011;15275;51.716;14.324;2023-03-02T09:33:25;36.70;;;17.33;;
27939;SDS011;15275;51.716;14.324;2023-03-02T09:35:52;34.00;;;17.70;;
27939;SDS011;15275;51.716;14.324;2023-03-02T09:38:17;35.17;;;15.85;;
27939;SDS011;15275;51.716;14.324;2023-03-02T09:54:10;28.33;;;14.57;;
27939;SDS011;15275;51.716;14.324;2023-03-02T09:56:56;35.28;;;16.23;;
27939;SDS011;15275;51.716;14.324;2023-03-02T10:01:58;30.25;;;13.82;;
27939;SDS011;15275;51.716;14.324;2023-03-02T10:04:31;25.58;;;12.90;;
27939;SDS011;15275;51.716;14.324;2023-03-02T10:07:10;28.10;;;14.18;;
27939;SDS011;15275;51.716;14.324;2023-03-02T10:15:47;29.40;;;13.75;;
27939;SDS011;15275;51.716;14.324;2023-03-02T10:23:47;26.15;;;13.50;;
27939;SDS011;15275;51.716;14.324;2023-03-02T10:26:44;27.00;;;12.80;;
27939;SDS011;15275;51.716;14.324;2023-03-02T10:32:24;24.25;;;12.52;;
27939;SDS011;15275;51.716;14.324;2023-03-02T10:34:56;25.52;;;13.57;;
27939;SDS011;15275;51.716;14.324;2023-03-02T10:37:29;25.75;;;12.60;;
27939;SDS011;15275;51.716;14.324;2023-03-02T10:39:55;26.75;;;13.38;;
27939;SDS011;15275;51.716;14.324;2023-03-02T10:42:26;24.73;;;12.93;;
27939;SDS011;15275;51.716;14.324;2023-03-02T10:45:18;29.67;;;12.38;;
27939;SDS011;15275;51.716;14.324;2023-03-02T10:48:04;30.98;;;13.07;;
27939;SDS011;15275;51.716;14.324;2023-03-02T10:50:33;23.90;;;12.30;;
27939;SDS011;15275;51.716;14.324;2023-03-02T10:53:00;23.35;;;11.88;;
27939;SDS011;15275;51.716;14.324;2023-03-02T10:55:26;27.23;;;13.32;;
27939;SDS011;15275;51.716;14.324;2023-03-02T10:58:00;23.70;;;12.98;;
27939;SDS011;15275;51.716;14.324;2023-03-02T11:00:28;27.02;;;13.15;;
27939;SDS011;15275;51.716;14.324;2023-03-02T11:03:00;23.10;;;12.18;;
27939;SDS011;15275;51.716;14.324;2023-03-02T11:05:39;27.02;;;12.60;;
27939;SDS011;15275;51.716;14.324;2023-03-02T11:08:09;25.30;;;12.25;;
27939;SDS011;15275;51.716;14.324;2023-03-02T11:13:19;24.02;;;12.82;;
27939;SDS011;15275;51.716;14.324;2023-03-02T11:16:02;25.33;;;12.38;;
27939;SDS011;15275;51.716;14.324;2023-03-02T11:21:40;21.35;;;12.15;;
27939;SDS011;15275;51.716;14.324;2023-03-02T11:24:14;23.83;;;13.10;;
27939;SDS011;15275;51.716;14.324;2023-03-02T11:32:16;26.58;;;12.80;;
27939;SDS011;15275;51.716;14.324;2023-03-02T11:38:16;21.10;;;10.90;;
27939;SDS011;15275;51.716;14.324;2023-03-02T11:41:13;18.80;;;10.98;;
27939;SDS011;15275;51.716;14.324;2023-03-02T11:43:53;23.00;;;11.15;;
27939;SDS011;15275;51.716;14.324;2023-03-02T11:46:25;24.38;;;12.25;;
27939;SDS011;15275;51.716;14.324;2023-03-02T11:48:56;24.40;;;13.15;;
27939;SDS011;15275;51.716;14.324;2023-03-02T11:51:29;22.15;;;12.10;;
27939;SDS011;15275;51.716;14.324;2023-03-02T11:54:02;23.08;;;11.70;;
27939;SDS011;15275;51.716;14.324;2023-03-02T11:57:00;21.23;;;11.10;;
27939;SDS011;15275;51.716;14.324;2023-03-02T11:59:27;21.75;;;11.13;;
27939;SDS011;15275;51.716;14.324;2023-03-02T12:01:55;19.27;;;10.95;;
27939;SDS011;15275;51.716;14.324;2023-03-02T12:04:34;18.65;;;10.68;;
27939;SDS011;15275;51.716;14.324;2023-03-02T12:07:14;22.77;;;11.55;;
27939;SDS011;15275;51.716;14.324;2023-03-02T12:09:55;24.73;;;12.35;;
27939;SDS011;15275;51.716;14.324;2023-03-02T12:21:05;18.55;;;10.93;;
27939;SDS011;15275;51.716;14.324;2023-03-02T12:28:53;20.33;;;10.98;;
27939;SDS011;15275;51.716;14.324;2023-03-02T12:36:53;19.95;;;10.77;;
27939;SDS011;15275;51.716;14.324;2023-03-02T12:47:43;21.35;;;10.13;;
27939;SDS011;15275;51.716;14.324;2023-03-02T12:50:18;22.98;;;10.43;;
27939;SDS011;15275;51.716;14.324;2023-03-02T12:52:56;20.13;;;10.93;;
27939;SDS011;15275;51.716;14.324;2023-03-02T12:55:25;20.60;;;11.18;;
27939;SDS011;15275;51.716;14.324;2023-03-02T12:57:55;20.75;;;10.55;;
27939;SDS011;15275;51.716;14.324;2023-03-02T13:00:26;20.52;;;11.50;;
27939;SDS011;15275;51.716;14.324;2023-03-02T13:02:56;20.20;;;10.75;;
27939;SDS011;15275;51.716;14.324;2023-03-02T13:05:24;18.67;;;9.75;;
27939;SDS011;15275;51.716;14.324;2023-03-02T13:08:00;23.48;;;10.95;;
27939;SDS011;15275;51.716;14.324;2023-03-02T13:13:00;15.40;;;7.43;;
27939;SDS011;15275;51.716;14.324;2023-03-02T13:15:28;19.42;;;9.98;;
27939;SDS011;15275;51.716;14.324;2023-03-02T13:17:55;15.10;;;8.75;;
27939;SDS011;15275;51.716;14.324;2023-03-02T13:20:24;18.38;;;9.73;;
27939;SDS011;15275;51.716;14.324;2023-03-02T13:22:53;19.25;;;9.27;;
27939;SDS011;15275;51.716;14.324;2023-03-02T13:25:24;16.88;;;9.95;;
27939;SDS011;15275;51.716;14.324;2023-03-02T13:27:59;18.00;;;9.20;;
27939;SDS011;15275;51.716;14.324;2023-03-02T13:30:31;18.23;;;9.48;;
27939;SDS011;15275;51.716;14.324;2023-03-02T13:32:59;18.33;;;9.85;;
27939;SDS011;15275;51.716;14.324;2023-03-02T13:35:30;17.00;;;9.68;;
27939;SDS011;15275;51.716;14.324;2023-03-02T13:38:09;15.98;;;8.90;;
27939;SDS011;15275;51.716;14.324;2023-03-02T13:40:43;14.70;;;8.25;;
27939;SDS011;15275;51.716;14.324;2023-03-02T13:43:19;16.38;;;9.50;;
27939;SDS011;15275;51.716;14.324;2023-03-02T13:48:23;16.98;;;8.25;;
27939;SDS011;15275;51.716;14.324;2023-03-02T13:53:37;18.15;;;9.63;;
27939;SDS011;15275;51.716;14.324;2023-03-02T13:56:08;19.58;;;10.10;;
27939;SDS011;15275;51.716;14.324;2023-03-02T13:58:38;19.00;;;9.80;;
27939;SDS011;15275;51.716;14.324;2023-03-02T14:01:04;21.70;;;10.18;;
27939;SDS011;15275;51.716;14.324;2023-03-02T14:03:31;19.23;;;10.13;;
27939;SDS011;15275;51.716;14.324;2023-03-02T14:05:57;23.13;;;12.25;;
27939;SDS011;15275;51.716;14.324;2023-03-02T14:08:24;19.33;;;9.50;;
27939;SDS011;15275;51.716;14.324;2023-03-02T14:10:51;17.77;;;9.85;;
27939;SDS011;15275;51.716;14.324;2023-03-02T14:13:25;15.57;;;8.93;;
27939;SDS011;15275;51.716;14.324;2023-03-02T14:16:19;17.17;;;9.15;;
27939;SDS011;15275;51.716;14.324;2023-03-02T14:18:48;18.42;;;9.52;;
27939;SDS011;15275;51.716;14.324;2023-03-02T14:23:45;15.73;;;9.10;;
27939;SDS011;15275;51.716;14.324;2023-03-02T14:26:30;19.00;;;8.95;;
27939;SDS011;15275;51.716;14.324;2023-03-02T14:29:17;16.52;;;9.18;;
27939;SDS011;15275;51.716;14.324;2023-03-02T14:31:52;13.77;;;8.00;;
27939;SDS011;15275;51.716;14.324;2023-03-02T14:34:20;19.15;;;8.73;;
27939;SDS011;15275;51.716;14.324;2023-03-02T14:36:47;19.73;;;11.10;;
27939;SDS011;15275;51.716;14.324;2023-03-02T14:39:21;18.08;;;9.45;;
27939;SDS011;15275;51.716;14.324;2023-03-02T14:42:14;15.48;;;8.50;;
27939;SDS011;15275;51.716;14.324;2023-03-02T14:44:42;16.58;;;9.35;;
27939;SDS011;15275;51.716;14.324;2023-03-02T14:47:10;14.70;;;8.23;;
27939;SDS011;15275;51.716;14.324;2023-03-02T14:49:36;15.45;;;8.25;;
27939;SDS011;15275;51.716;14.324;2023-03-02T14:54:39;20.13;;;9.30;;
27939;SDS011;15275;51.716;14.324;2023-03-02T14:57:20;15.98;;;10.10;;
27939;SDS011;15275;51.716;14.324;2023-03-02T14:59:49;18.38;;;9.02;;
27939;SDS011;15275;51.716;14.324;2023-03-02T15:02:16;15.30;;;9.18;;
27939;SDS011;15275;51.716;14.324;2023-03-02T15:04:44;20.25;;;11.32;;
27939;SDS011;15275;51.716;14.324;2023-03-02T15:07:11;21.58;;;10.45;;
27939;SDS011;15275;51.716;14.324;2023-03-02T15:09:41;19.38;;;11.00;;
27939;SDS011;15275;51.716;14.324;2023-03-02T15:12:10;19.52;;;10.40;;
27939;SDS011;15275;51.716;14.324;2023-03-02T15:14:36;21.02;;;12.02;;
27939;SDS011;15275;51.716;14.324;2023-03-02T15:17:02;22.05;;;12.05;;
27939;SDS011;15275;51.716;14.324;2023-03-02T15:19:28;19.40;;;10.60;;
27939;SDS011;15275;51.716;14.324;2023-03-02T15:21:54;21.95;;;11.57;;
27939;SDS011;15275;51.716;14.324;2023-03-02T15:24:20;21.50;;;11.02;;
27939;SDS011;15275;51.716;14.324;2023-03-02T15:26:47;20.35;;;11.13;;
27939;SDS011;15275;51.716;14.324;2023-03-02T15:29:15;18.67;;;9.98;;
27939;SDS011;15275;51.716;14.324;2023-03-02T15:31:42;22.30;;;11.93;;
27939;SDS011;15275;51.716;14.324;2023-03-02T15:34:08;25.73;;;12.82;;
27939;SDS011;15275;51.716;14.324;2023-03-02T15:36:34;29.55;;;15.05;;
27939;SDS011;15275;51.716;14.324;2023-03-02T15:39:00;27.40;;;13.20;;
27939;SDS011;15275;51.716;14.324;2023-03-02T15:41:26;21.92;;;12.30;;
27939;SDS011;15275;51.716;14.324;2023-03-02T15:43:53;25.38;;;12.48;;
27939;SDS011;15275;51.716;14.324;2023-03-02T15:46:20;22.77;;;11.60;;
27939;SDS011;15275;51.716;14.324;2023-03-02T15:48:47;23.75;;;12.80;;
27939;SDS011;15275;51.716;14.324;2023-03-02T15:51:16;22.23;;;12.63;;
27939;SDS011;15275;51.716;14.324;2023-03-02T15:53:42;21.58;;;10.70;;
27939;SDS011;15275;51.716;14.324;2023-03-02T15:56:09;21.77;;;11.88;;
27939;SDS011;15275;51.716;14.324;2023-03-02T15:58:39;17.73;;;10.55;;
27939;SDS011;15275;51.716;14.324;2023-03-02T16:01:09;18.88;;;10.82;;